Aviation Digital Data Service (ADDS)

Output produced by METARs form (0828 UTC 07 February 2016)
found at http://aviationweather.gov/adds/metars/
 
KACY 070537Z 0706/0806 VRB04KT P6SM FEW200 
     FM071400 02005KT P6SM SKC 
     FM072000 05010KT P6SM BKN200 
     FM080500 03013G21KT P6SM SCT050 OVC100